Home   Weather   United Kingdom   Manchester   Past weeks
Flag for United Kingdom

Past Weather in Manchester, England, United Kingdom — May 2014

Currently: 41 °F. Mostly cloudy. (Weather station: Manchester Airport, United Kingdom). See more current weather

May 2014 Weather in Manchester — Graph

°F

High & Low Weather Summary for May 2014

 TemperatureHumidityPressure
High75 °F (May 19, 2:20 pm)100% (May 1, 12:20 am)30.60 "Hg (May 1, 12:20 am)
Low32 °F (May 3, 5:50 am)37% (May 21, 5:20 pm)29.33 "Hg (May 10, 4:20 pm)
Average54 °F77%29.95 "Hg
* Reported May 1 12:20 am — May 31 11:50 pm, Manchester. Weather by CustomWeather, © 2021

Note: Actual official high and low records may vary slightly from our data, if they occured in-between our weather recording intervals... More about our weather records

Manchester Weather History for May 1, 2014

Scroll right to see more
 ConditionsComfort  
Time TempWeatherWind HumidityBarometerVisibility
12:20 am
Thu, May 1
48 °FFog.3 mph100%29.83 "Hg2 mi
12:50 am48 °FFog.3 mph100%29.83 "Hg2 mi
1:20 am50 °FFog.No wind94%29.83 "Hg2 mi
1:50 am50 °FFog.2 mph94%29.80 "Hg2 mi
2:20 am48 °FFog.3 mph94%29.80 "Hg1 mi
2:50 am48 °FFog.No wind100%29.80 "Hg1 mi
3:20 am48 °FFog.No wind100%29.80 "Hg1 mi
3:50 am48 °FFog.2 mph94%29.80 "Hg1 mi
4:20 am48 °FFog.2 mph94%29.80 "Hg1 mi
4:50 am48 °FFog.3 mph94%29.77 "Hg1 mi
5:20 am48 °FFog.2 mph100%29.77 "Hg1 mi
5:50 am50 °FSprinkles. Passing clouds.2 mph94%29.77 "Hg1 mi
6:20 am50 °FRain showers. Passing clouds.2 mph94%29.77 "Hg1 mi
6:50 am50 °FHeavy rain. Broken clouds.3 mph94%29.80 "Hg1 mi
7:20 am50 °FFog.5 mph94%29.80 "Hg1 mi
7:50 am50 °FLight rain. Scattered clouds.9 mph94%29.80 "Hg2 mi
8:20 am50 °FLight rain. Partly sunny.5 mph94%29.80 "Hg2 mi
8:50 am52 °FFog.6 mph94%29.80 "Hg2 mi
9:20 am52 °FLight rain. Broken clouds.7 mph94%29.80 "Hg3 mi
9:50 am52 °FLight rain. Partly sunny.7 mph94%29.80 "Hg3 mi
10:20 am54 °FLight rain. Partly sunny.8 mph88%29.80 "Hg4 mi
10:50 am55 °FLight rain. Partly sunny.7 mph82%29.83 "Hg6 mi
11:20 am55 °FPartly sunny.9 mph82%29.83 "HgN/A
11:50 am55 °FBroken clouds.10 mph82%29.83 "HgN/A
12:20 pm55 °FBroken clouds.10 mph82%29.83 "HgN/A
12:50 pm54 °FBroken clouds.12 mph82%29.83 "HgN/A
1:20 pm55 °FBroken clouds.13 mph77%29.83 "HgN/A
1:50 pm55 °FBroken clouds.14 mph77%29.86 "HgN/A
2:20 pm54 °FScattered showers. Partly sunny.15 mph82%29.86 "HgN/A
2:50 pm54 °FDrizzle. Broken clouds.17 mph82%29.86 "HgN/A
3:20 pm52 °FPartly sunny.17 mph88%29.86 "Hg6 mi
3:50 pm52 °FPartly sunny.16 mph88%29.89 "Hg4 mi
4:20 pm52 °FPartly sunny.16 mph88%29.89 "HgN/A
4:50 pm50 °FPartly sunny.18 mph88%29.89 "HgN/A
5:20 pm50 °FPartly sunny.16 mph88%29.92 "HgN/A
5:50 pm50 °FScattered showers. Partly sunny.20 mph88%29.92 "HgN/A
6:20 pm48 °FPartly sunny.18 mph87%29.95 "HgN/A
6:50 pm48 °FPartly sunny.18 mph87%29.95 "HgN/A
7:20 pm48 °FPartly sunny.17 mph82%29.98 "HgN/A
7:50 pm46 °FPartly sunny.15 mph87%29.98 "HgN/A
8:20 pm46 °FPartly sunny.13 mph87%30.01 "HgN/A
8:50 pm46 °FPartly sunny.14 mph82%30.01 "HgN/A
9:20 pm46 °FPartly sunny.13 mph82%30.04 "HgN/A
9:50 pm45 °FPassing clouds.10 mph81%30.07 "HgN/A
10:20 pm45 °FPassing clouds.9 mph81%30.07 "HgN/A
10:50 pm45 °FPassing clouds.10 mph81%30.07 "HgN/A
11:20 pm45 °FPassing clouds.12 mph81%30.09 "HgN/A
11:50 pm45 °FPassing clouds.10 mph81%30.09 "HgN/A
Weather by CustomWeather, © 2021

See weather overview